Time;durP1;ratioP1;P1;durP2;ratioP2;P2;SDS_P1;SDS_P2;PMS_P1;PMS_P2;Temp;Humidity;BMP_temperature;BMP_pressure;BME280_temperature;BME280_humidity;BME280_pressure;Samples;Min_cycle;Max_cycle;Signal;HPM_P1;HPM_P2
2023/01/17 00:02:14;;;;;;;6.95;0.57;;;;;;;2.67;100.00;98372.41;5047254;28;20116;-37
2023/01/17 00:10:17;;;;;;;3.40;0.50;;;;;;;2.45;100.00;98367.09;5032494;28;20052;-36
2023/01/17 00:12:46;;;;;;;4.43;0.52;;;;;;;2.37;100.00;98365.41;5047175;28;20036;-37
2023/01/17 00:15:12;;;;;;;9.02;0.80;;;;;;;2.34;100.00;98368.44;5053082;28;20023;-36
2023/01/17 00:17:37;;;;;;;9.73;0.77;;;;;;;2.31;100.00;98374.09;5050346;28;20094;-37
2023/01/17 01:34:59;;;;;;;16.35;1.73;;;;;;;2.14;100.00;98452.31;5056262;28;20052;-35
2023/01/17 01:37:24;;;;;;;10.77;1.15;;;;;;;2.22;100.00;98452.22;5041466;28;20018;-35
2023/01/17 01:39:50;;;;;;;6.05;0.60;;;;;;;2.27;100.00;98449.81;5036243;28;20387;-35
2023/01/17 01:42:15;;;;;;;9.07;0.75;;;;;;;2.36;100.00;98456.66;5044330;28;20530;-36
2023/01/17 01:44:46;;;;;;;12.68;1.27;;;;;;;2.43;100.00;98446.13;5056410;28;20502;-35
2023/01/17 01:47:24;;;;;;;14.27;1.00;;;;;;;2.47;100.00;98451.84;5051348;28;20021;-37
2023/01/17 01:49:50;;;;;;;7.47;0.70;;;;;;;2.52;100.00;98457.44;5030976;28;20037;-36
2023/01/17 01:52:17;;;;;;;17.13;1.10;;;;;;;2.56;100.00;98461.34;5032290;28;20030;-37
2023/01/17 01:54:46;;;;;;;8.95;1.08;;;;;;;2.55;100.00;98463.16;5032058;28;20029;-37
2023/01/17 01:57:15;;;;;;;11.27;1.13;;;;;;;2.60;100.00;98465.25;5033151;28;20029;-37
2023/01/17 01:59:44;;;;;;;3.53;0.57;;;;;;;2.62;100.00;98468.56;5050165;28;20047;-37
2023/01/17 02:02:09;;;;;;;6.40;1.27;;;;;;;2.64;100.00;98471.84;5047584;28;20033;-35
2023/01/17 02:04:35;;;;;;;10.50;0.90;;;;;;;2.67;100.00;98475.97;5041817;28;20103;-37
2023/01/17 02:07:09;;;;;;;12.05;1.17;;;;;;;2.67;100.00;98468.81;5034237;28;20021;-35
2023/01/17 02:09:34;;;;;;;14.68;1.42;;;;;;;2.67;100.00;98474.13;5047378;28;20082;-36
2023/01/17 02:12:01;;;;;;;23.75;1.48;;;;;;;2.67;100.00;98474.13;5047107;28;20549;-35
2023/01/17 02:14:26;;;;;;;10.25;0.95;;;;;;;2.73;100.00;98477.84;5035192;28;20040;-36
2023/01/17 02:17:04;;;;;;;11.98;0.88;;;;;;;2.72;100.00;98470.91;5036464;28;20487;-36
2023/01/17 02:20:00;;;;;;;14.07;1.08;;;;;;;2.71;100.00;98493.97;5048931;28;20040;-36
2023/01/17 02:22:32;;;;;;;10.18;1.17;;;;;;;2.65;100.00;98494.72;5053578;28;20033;-36
2023/01/17 02:25:16;;;;;;;10.85;0.90;;;;;;;2.62;100.00;98500.44;5057809;28;20043;-36
2023/01/17 02:28:09;;;;;;;8.18;0.90;;;;;;;2.60;100.00;98505.91;5055082;28;20031;-37
2023/01/17 02:30:36;;;;;;;8.57;0.80;;;;;;;2.55;100.00;98507.50;5053104;28;20020;-35
2023/01/17 02:33:33;;;;;;;5.53;0.80;;;;;;;2.52;100.00;98498.06;5035463;28;20037;-36
2023/01/17 02:36:14;;;;;;;5.05;0.40;;;;;;;2.52;100.00;98502.56;5037336;28;20104;-35
2023/01/17 02:38:59;;;;;;;6.10;0.73;;;;;;;2.49;100.00;98497.63;5035698;28;20089;-36
2023/01/17 02:41:29;;;;;;;5.80;0.57;;;;;;;2.39;100.00;98509.34;5035139;28;20025;-36
2023/01/17 02:43:54;;;;;;;10.70;0.60;;;;;;;2.31;100.00;98500.69;5055805;28;20033;-36
2023/01/17 02:46:20;;;;;;;4.53;0.70;;;;;;;2.29;100.00;98492.94;5055846;28;20031;-36
2023/01/17 02:48:46;;;;;;;18.45;1.17;;;;;;;2.27;100.00;98497.59;5042500;28;20025;-35
2023/01/17 02:51:56;;;;;;;11.75;1.50;;;;;;;2.26;100.00;98495.13;5049661;28;20037;-36
2023/01/17 02:54:33;;;;;;;10.80;1.30;;;;;;;2.31;100.00;98500.69;5014478;28;20061;-37
2023/01/17 02:57:06;;;;;;;6.28;1.00;;;;;;;2.30;100.00;98499.88;5051890;28;20044;-38
2023/01/17 02:59:39;;;;;;;8.00;1.30;;;;;;;2.34;100.00;98506.47;5045487;28;20095;-34
2023/01/17 03:02:25;;;;;;;13.00;1.02;;;;;;;2.37;100.00;98499.94;5031702;28;20037;-35
2023/01/17 03:05:19;;;;;;;11.38;1.48;;;;;;;2.38;100.00;98506.91;5032619;28;20030;-38
2023/01/17 03:07:47;;;;;;;9.10;1.13;;;;;;;2.36;100.00;98514.22;5035908;28;20467;-37
2023/01/17 03:10:15;;;;;;;7.97;0.82;;;;;;;2.36;100.00;98509.72;5052729;28;20024;-37
2023/01/17 03:12:41;;;;;;;13.85;0.82;;;;;;;2.39;100.00;98514.66;5036596;28;20445;-37
2023/01/17 03:15:16;;;;;;;22.05;1.23;;;;;;;2.39;100.00;98505.88;5031400;28;20052;-36
2023/01/17 03:17:44;;;;;;;6.70;0.80;;;;;;;2.41;100.00;98514.50;5036103;28;20040;-37
2023/01/17 03:20:11;;;;;;;11.70;0.98;;;;;;;2.43;100.00;98509.81;5051912;28;20037;-36
2023/01/17 03:22:36;;;;;;;12.18;1.13;;;;;;;2.46;100.00;98509.44;5049220;28;20040;-37
2023/01/17 03:25:01;;;;;;;11.52;1.25;;;;;;;2.48;100.00;98503.97;5053535;28;20033;-37
2023/01/17 03:27:27;;;;;;;7.22;0.70;;;;;;;2.53;100.00;98501.56;5039034;28;20087;-38
2023/01/17 03:29:52;;;;;;;8.93;1.17;;;;;;;2.51;100.00;98506.22;5051797;28;20029;-37
2023/01/17 03:32:17;;;;;;;11.00;0.88;;;;;;;2.45;100.00;98504.31;5037704;28;20021;-35
2023/01/17 03:34:43;;;;;;;22.17;1.30;;;;;;;2.45;100.00;98504.31;5031928;28;20481;-38
2023/01/17 03:37:08;;;;;;;5.68;0.90;;;;;;;2.44;100.00;98513.28;5035364;28;20384;-37
2023/01/17 03:39:33;;;;;;;10.90;1.10;;;;;;;2.39;100.00;98506.69;5052479;28;20433;-37
2023/01/17 03:41:59;;;;;;;14.48;1.02;;;;;;;2.38;100.00;98504.25;5058617;28;20033;-35
2023/01/17 03:44:24;;;;;;;8.02;0.60;;;;;;;2.34;100.00;98506.47;5058256;28;20028;-37
2023/01/17 03:46:49;;;;;;;16.33;1.83;;;;;;;2.31;100.00;98511.31;5043584;28;20160;-37
2023/01/17 03:49:15;;;;;;;12.70;1.75;;;;;;;2.27;100.00;98515.34;5040195;28;20024;-36
2023/01/17 03:51:41;;;;;;;8.40;0.88;;;;;;;2.25;100.00;98517.38;5044760;28;20025;-37
2023/01/17 03:54:06;;;;;;;18.10;1.35;;;;;;;2.26;100.00;98513.69;5054574;28;20079;-38
2023/01/17 03:56:32;;;;;;;10.05;0.80;;;;;;;2.30;100.00;98515.78;5056355;28;20082;-38
2023/01/17 03:58:57;;;;;;;6.97;1.05;;;;;;;2.34;100.00;98518.88;5051744;28;20064;-35
2023/01/17 04:01:23;;;;;;;16.60;0.85;;;;;;;2.40;100.00;98521.63;5033179;28;20083;-37
2023/01/17 04:03:48;;;;;;;7.50;0.80;;;;;;;2.46;100.00;98521.91;5052057;28;20036;-37
2023/01/17 04:06:14;;;;;;;10.07;1.17;;;;;;;2.50;100.00;98525.81;5033995;28;20028;-36
2023/01/17 04:08:39;;;;;;;12.00;1.33;;;;;;;2.53;100.00;98523.63;5044416;28;20059;-37
2023/01/17 04:11:04;;;;;;;11.15;1.17;;;;;;;2.55;100.00;98518.09;5038678;28;20025;-37
2023/01/17 04:13:30;;;;;;;8.95;1.05;;;;;;;2.62;100.00;98529.63;5051197;28;20028;-37
2023/01/17 04:15:55;;;;;;;15.35;1.60;;;;;;;2.62;100.00;98529.63;5031291;28;20041;-37
2023/01/17 04:18:21;;;;;;;10.93;1.00;;;;;;;2.62;100.00;98534.94;5033057;28;20109;-37
2023/01/17 04:20:47;;;;;;;6.07;0.68;;;;;;;2.61;100.00;98528.81;5041843;28;20168;-37
2023/01/17 04:23:12;;;;;;;16.00;1.02;;;;;;;2.60;100.00;98535.13;5053411;28;20108;-37
2023/01/17 04:25:38;;;;;;;10.10;1.10;;;;;;;2.61;100.00;98538.63;5050789;28;20388;-37
2023/01/17 04:28:03;;;;;;;12.50;1.15;;;;;;;2.60;100.00;98537.78;5050470;28;20499;-37
2023/01/17 04:30:29;;;;;;;12.25;1.65;;;;;;;2.59;100.00;98540.63;5040215;28;21128;-37
2023/01/17 04:32:55;;;;;;;8.40;1.13;;;;;;;2.54;100.00;98537.72;5033156;28;20029;-37
2023/01/17 04:35:21;;;;;;;8.13;0.80;;;;;;;2.50;100.00;98536.44;5031411;28;20077;-37
2023/01/17 04:37:46;;;;;;;15.30;1.42;;;;;;;2.48;100.00;98543.78;5031729;28;20064;-37
2023/01/17 04:40:12;;;;;;;14.48;1.08;;;;;;;2.44;100.00;98540.66;5041508;28;20037;-37
2023/01/17 04:42:38;;;;;;;4.80;0.80;;;;;;;2.42;100.00;98542.66;5051355;28;20029;-37
2023/01/17 04:45:04;;;;;;;18.23;1.17;;;;;;;2.37;100.00;98542.41;5053129;28;20509;-36
2023/01/17 04:47:29;;;;;;;27.52;1.85;;;;;;;2.34;100.00;98542.78;5051309;28;20028;-36
2023/01/17 04:49:54;;;;;;;12.75;1.42;;;;;;;2.31;100.00;98529.88;5044548;28;20025;-37
2023/01/17 04:52:20;;;;;;;21.70;1.55;;;;;;;2.25;100.00;98535.94;5043049;28;20495;-37
2023/01/17 04:54:48;;;;;;;6.38;1.00;;;;;;;2.21;100.00;98538.13;5050517;28;20532;-36
2023/01/17 04:57:16;;;;;;;9.55;1.33;;;;;;;2.18;100.00;98534.00;5052525;28;20029;-36
2023/01/17 04:59:42;;;;;;;10.38;1.15;;;;;;;2.13;100.00;98530.28;5046736;28;20374;-37
2023/01/17 05:02:08;;;;;;;9.88;1.20;;;;;;;2.11;100.00;98530.47;5032501;28;20047;-36
2023/01/17 05:04:33;;;;;;;17.23;1.13;;;;;;;2.11;100.00;98533.13;5032561;28;20029;-36
2023/01/17 05:06:59;;;;;;;15.00;1.55;;;;;;;2.12;100.00;98544.56;5052855;28;20356;-36
2023/01/17 05:09:24;;;;;;;5.65;0.98;;;;;;;2.10;100.00;98551.88;5048325;28;20429;-36
2023/01/17 05:11:50;;;;;;;6.18;1.00;;;;;;;2.10;100.00;98546.56;5032882;28;20500;-35
2023/01/17 05:14:15;;;;;;;7.07;1.55;;;;;;;2.09;100.00;98548.41;5032712;28;20025;-35
2023/01/17 05:16:40;;;;;;;7.55;1.48;;;;;;;2.09;100.00;98550.22;5053112;28;20108;-35
2023/01/17 05:19:05;;;;;;;6.10;0.80;;;;;;;2.12;100.00;98557.81;5036451;28;20071;-34
2023/01/17 05:21:31;;;;;;;11.65;1.20;;;;;;;2.11;100.00;98558.84;5046316;28;20056;-36
2023/01/17 05:23:57;;;;;;;9.10;0.98;;;;;;;2.11;100.00;98569.44;5033635;28;20037;-37
2023/01/17 05:26:22;;;;;;;11.80;0.93;;;;;;;2.09;100.00;98571.47;5032342;28;20233;-36
2023/01/17 05:28:48;;;;;;;7.50;1.35;;;;;;;2.07;100.00;98571.63;5043527;28;20079;-36
2023/01/17 05:31:14;;;;;;;8.23;1.10;;;;;;;2.05;100.00;98581.59;5052640;28;20503;-36
2023/01/17 05:33:39;;;;;;;4.80;0.85;;;;;;;2.03;100.00;98578.31;5049092;28;20488;-36
2023/01/17 05:36:05;;;;;;;14.38;1.15;;;;;;;2.03;100.00;98574.81;5045120;28;20122;-37
2023/01/17 05:38:30;;;;;;;4.60;0.90;;;;;;;2.00;100.00;98576.00;5047484;28;20021;-36
2023/01/17 05:40:58;;;;;;;14.07;1.02;;;;;;;1.93;100.00;98573.28;5033083;28;20387;-37
2023/01/17 05:43:24;;;;;;;19.70;1.40;;;;;;;1.89;100.00;98577.28;5039690;28;20033;-37
2023/01/17 05:45:49;;;;;;;8.15;1.02;;;;;;;1.83;100.00;98567.41;5038465;28;20503;-37
2023/01/17 05:48:14;;;;;;;6.90;1.10;;;;;;;1.80;100.00;98580.22;5033313;28;20480;-37
2023/01/17 05:50:40;;;;;;;14.50;1.67;;;;;;;1.75;100.00;98578.09;5038807;28;20029;-37
2023/01/17 05:53:08;;;;;;;6.80;1.20;;;;;;;1.71;100.00;98592.72;5039149;28;20554;-36
2023/01/17 05:55:33;;;;;;;;;;;;;;;1.73;100.00;98585.41;5041906;28;20068;-37
2023/01/17 05:57:59;;;;;;;12.55;1.77;;;;;;;1.69;100.00;98592.09;5040541;28;19912;-36
2023/01/17 06:00:25;;;;;;;3.28;1.00;;;;;;;1.64;100.00;98595.28;5029976;28;20056;-36
2023/01/17 06:02:55;;;;;;;11.70;1.52;;;;;;;1.60;100.00;98587.84;5031337;28;20048;-36
2023/01/17 06:05:21;;;;;;;6.88;1.60;;;;;;;1.57;100.00;98604.13;5032427;28;20394;-35
2023/01/17 06:07:47;;;;;;;14.98;1.10;;;;;;;1.55;100.00;98599.00;5042719;28;20435;-36
2023/01/17 06:10:14;;;;;;;12.00;1.30;;;;;;;1.51;100.00;98601.19;5040485;28;20100;-36
2023/01/17 06:12:40;;;;;;;6.43;1.02;;;;;;;1.49;100.00;98599.72;5048086;28;20021;-36
2023/01/17 06:15:06;;;;;;;10.85;1.25;;;;;;;1.47;100.00;98596.41;5038274;28;20025;-36
2023/01/17 06:17:32;;;;;;;9.02;1.30;;;;;;;1.46;100.00;98595.59;5043847;28;20021;-36
2023/01/17 06:19:57;;;;;;;10.88;1.17;;;;;;;1.42;100.00;98602.28;5046372;28;20454;-36
2023/01/17 06:22:23;;;;;;;12.27;1.20;;;;;;;1.38;100.00;98606.28;5031718;28;20381;-36
2023/01/17 06:24:48;;;;;;;6.50;1.30;;;;;;;1.34;100.00;98610.25;5041780;28;20059;-36
2023/01/17 06:27:14;;;;;;;4.57;1.13;;;;;;;1.33;100.00;98605.97;5045442;28;20029;-36
2023/01/17 06:29:39;;;;;;;11.30;1.10;;;;;;;1.33;100.00;98605.16;5046467;28;20066;-36
2023/01/17 06:32:04;;;;;;;11.73;1.60;;;;;;;1.34;100.00;98609.44;5045638;28;20520;-38
2023/01/17 06:34:30;;;;;;;5.57;0.90;;;;;;;1.33;100.00;98610.47;5041607;28;20962;-37
2023/01/17 06:36:55;;;;;;;9.43;1.00;;;;;;;1.31;100.00;98605.31;5042869;28;20033;-37
2023/01/17 06:39:21;;;;;;;15.02;1.80;;;;;;;1.27;100.00;98604.88;5042221;28;20071;-38
2023/01/17 06:41:46;;;;;;;10.27;1.20;;;;;;;1.24;100.00;98605.22;5042416;28;20120;-35
2023/01/17 06:44:11;;;;;;;8.48;1.35;;;;;;;1.20;100.00;98603.09;5035275;28;20100;-35
2023/01/17 06:46:37;;;;;;;8.82;1.10;;;;;;;1.15;100.00;98606.28;5037987;28;20068;-37
2023/01/17 06:49:02;;;;;;;5.82;1.15;;;;;;;1.13;100.00;98610.09;5033534;28;20031;-37
2023/01/17 06:51:28;;;;;;;8.80;1.30;;;;;;;1.06;100.00;98602.88;5034215;28;20121;-36
2023/01/17 06:53:53;;;;;;;5.40;1.10;;;;;;;1.09;100.00;98604.34;5044715;28;20133;-36
2023/01/17 06:56:19;;;;;;;8.55;1.40;;;;;;;1.08;100.00;98606.16;5030763;28;20420;-36
2023/01/17 06:58:49;;;;;;;6.40;1.20;;;;;;;1.13;100.00;98604.78;5031544;28;20505;-36
2023/01/17 07:01:14;;;;;;;5.05;0.93;;;;;;;1.08;100.00;98600.88;5028641;28;20136;-37
2023/01/17 07:03:39;;;;;;;3.67;0.98;;;;;;;1.02;100.00;98606.84;5024250;28;20476;-37
2023/01/17 07:06:05;;;;;;;8.38;1.42;;;;;;;0.99;100.00;98606.38;5040714;28;20787;-38
2023/01/17 07:08:31;;;;;;;5.20;1.30;;;;;;;0.92;100.00;98606.25;5046205;28;21074;-37
2023/01/17 07:11:02;;;;;;;3.45;1.35;;;;;;;0.85;100.00;98618.56;5042793;28;20029;-37
2023/01/17 07:13:28;;;;;;;7.30;1.55;;;;;;;0.80;100.00;98619.06;5046725;28;20052;-36
2023/01/17 07:15:53;;;;;;;10.05;1.80;;;;;;;0.72;100.00;98616.47;5042673;28;20099;-38
2023/01/17 07:18:22;;;;;;;7.85;2.03;;;;;;;0.64;100.00;98617.34;5044022;28;20456;-36
2023/01/17 07:20:47;;;;;;;;;;;;;;;0.59;100.00;98618.84;5046428;28;20037;-37
2023/01/17 07:23:12;;;;;;;7.63;1.58;;;;;;;0.55;100.00;98620.19;5044836;28;19924;-37
2023/01/17 07:25:38;;;;;;;6.53;1.30;;;;;;;0.49;100.00;98628.81;5045457;28;20452;-35
2023/01/17 07:28:03;;;;;;;5.97;1.90;;;;;;;0.42;100.00;98618.09;5042070;28;20506;-37
2023/01/17 07:30:29;;;;;;;6.25;2.10;;;;;;;0.34;100.00;98628.69;5043272;28;20033;-35
2023/01/17 07:32:55;;;;;;;6.90;2.35;;;;;;;0.31;100.00;98629.03;5044397;28;20151;-36
2023/01/17 07:35:21;;;;;;;5.15;1.55;;;;;;;0.29;100.00;98628.38;5045487;28;20083;-36
2023/01/17 07:37:50;;;;;;;2.72;1.60;;;;;;;0.25;100.00;98630.56;5045768;28;20067;-37
2023/01/17 07:40:16;;;;;;;15.63;1.95;;;;;;;0.25;100.00;98629.75;5045086;28;20158;-36
2023/01/17 07:42:42;;;;;;;10.55;2.20;;;;;;;0.26;100.00;98631.38;5045621;28;20101;-36
2023/01/17 07:45:09;;;;;;;4.43;1.92;;;;;;;0.27;100.00;98628.56;5043365;28;20986;-36
2023/01/17 07:47:34;;;;;;;8.45;1.65;;;;;;;0.26;100.00;98637.50;5044237;28;20377;-36
2023/01/17 07:50:00;;;;;;;6.38;1.95;;;;;;;0.26;100.00;98637.50;5043139;28;20329;-37
2023/01/17 07:52:26;;;;;;;6.32;1.83;;;;;;;0.27;100.00;98633.03;5045171;28;20126;-37
2023/01/17 07:54:51;;;;;;;12.35;1.85;;;;;;;0.30;100.00;98635.34;5043391;28;20063;-37
2023/01/17 07:57:16;;;;;;;8.93;2.00;;;;;;;0.33;100.00;98627.88;5044551;28;20021;-36
2023/01/17 07:59:42;;;;;;;6.55;1.60;;;;;;;0.40;100.00;98633.34;5045070;28;20100;-36
2023/01/17 08:02:16;;;;;;;4.57;1.63;;;;;;;0.49;100.00;98634.94;5045209;28;20512;-35
2023/01/17 08:04:41;;;;;;;6.50;1.92;;;;;;;0.62;100.00;98626.44;5045579;28;20033;-36
2023/01/17 08:07:07;;;;;;;5.72;1.88;;;;;;;0.69;100.00;98629.25;5044763;28;20093;-35
2023/01/17 08:09:32;;;;;;;10.07;2.60;;;;;;;0.74;100.00;98634.81;5042256;28;20120;-35
2023/01/17 08:11:57;;;;;;;8.70;2.30;;;;;;;0.79;100.00;98641.25;5043416;28;20166;-35
2023/01/17 08:14:23;;;;;;;14.32;2.20;;;;;;;0.80;100.00;98644.72;5046110;28;20057;-37
2023/01/17 08:16:49;;;;;;;3.95;1.75;;;;;;;0.76;100.00;98640.78;5045496;28;20060;-36
2023/01/17 08:19:15;;;;;;;7.63;2.10;;;;;;;0.67;100.00;98647.13;5044437;28;20033;-37
2023/01/17 08:21:40;;;;;;;11.80;2.22;;;;;;;0.61;100.00;98641.50;5042702;28;20029;-36
2023/01/17 08:24:12;;;;;;;15.40;2.75;;;;;;;0.61;100.00;98648.63;5044855;28;20044;-37
2023/01/17 08:26:37;;;;;;;7.13;3.03;;;;;;;0.60;100.00;98650.44;5044660;28;20059;-35
2023/01/17 08:29:02;;;;;;;14.55;3.45;;;;;;;0.65;100.00;98649.91;5048871;28;20672;-36
2023/01/17 08:31:33;;;;;;;9.65;1.40;;;;;;;0.69;100.00;98653.06;5048029;28;20037;-39
2023/01/17 08:33:58;;;;;;;15.95;2.30;;;;;;;0.83;100.00;98639.09;5049580;28;20021;-37
2023/01/17 08:36:24;;;;;;;12.65;2.72;;;;;;;1.07;100.00;98641.59;5048013;28;20059;-36
2023/01/17 08:38:51;;;;;;;6.00;1.60;;;;;;;1.35;100.00;98640.25;5049416;28;20163;-36
2023/01/17 08:41:18;;;;;;;15.70;1.65;;;;;;;1.53;100.00;98636.31;5035948;28;20088;-38
2023/01/17 08:43:46;;;;;;;15.07;2.10;;;;;;;1.71;100.00;98629.84;5037547;28;20039;-35
2023/01/17 08:46:11;;;;;;;9.07;2.45;;;;;;;1.95;100.00;98628.81;5050920;28;20082;-36
2023/01/17 08:48:36;;;;;;;6.03;1.90;;;;;;;2.49;100.00;98633.03;5045469;28;20029;-36
2023/01/17 08:51:02;;;;;;;10.07;2.38;;;;;;;3.15;100.00;98633.81;5046954;28;20037;-35
2023/01/17 08:53:28;;;;;;;4.88;1.20;;;;;;;3.76;100.00;98629.88;5052583;28;20068;-37
2023/01/17 08:55:58;;;;;;;10.93;1.40;;;;;;;4.19;100.00;98622.63;5052911;28;20020;-37
2023/01/17 08:58:23;;;;;;;9.27;1.55;;;;;;;4.12;100.00;98622.56;5052928;28;20098;-36
2023/01/17 09:00:48;;;;;;;12.65;1.88;;;;;;;4.00;100.00;98628.63;5052595;28;20048;-36
2023/01/17 09:03:14;;;;;;;8.93;1.60;;;;;;;3.79;100.00;98626.81;5052198;28;20025;-36
2023/01/17 09:05:39;;;;;;;19.85;1.85;;;;;;;3.67;100.00;98629.19;5053462;28;20025;-35
2023/01/17 09:08:05;;;;;;;4.20;1.30;;;;;;;3.51;100.00;98632.94;5053411;28;20475;-35
2023/01/17 09:10:30;;;;;;;4.85;2.38;;;;;;;3.35;100.00;98636.69;5054277;28;20150;-36
2023/01/17 09:12:55;;;;;;;3.65;1.55;;;;;;;3.29;100.00;98627.63;5054181;28;20376;-37
2023/01/17 09:15:21;;;;;;;4.80;1.63;;;;;;;3.21;100.00;98635.75;5053058;28;20455;-37
2023/01/17 09:17:46;;;;;;;18.83;1.92;;;;;;;3.12;100.00;98630.72;5053095;28;20507;-36
2023/01/17 09:20:12;;;;;;;4.10;1.70;;;;;;;3.02;100.00;98631.00;5053160;28;20029;-37
2023/01/17 09:22:37;;;;;;;6.35;1.77;;;;;;;2.93;100.00;98642.78;5052975;28;20117;-35
2023/01/17 09:25:05;;;;;;;5.25;2.05;;;;;;;2.85;100.00;98639.22;5052939;28;20029;-35
2023/01/17 09:27:30;;;;;;;12.57;2.00;;;;;;;2.90;100.00;98645.78;5052102;28;20032;-34
2023/01/17 09:29:56;;;;;;;8.77;1.60;;;;;;;2.88;100.00;98651.31;5053354;28;20029;-37
2023/01/17 09:32:21;;;;;;;5.97;1.63;;;;;;;2.90;100.00;98651.94;5053469;28;20365;-38
2023/01/17 09:34:46;;;;;;;14.32;2.42;;;;;;;2.92;100.00;98643.78;5051039;28;20399;-36
2023/01/17 09:37:12;;;;;;;7.80;2.30;;;;;;;2.89;100.00;98658.25;5051527;28;20068;-36
2023/01/17 09:39:37;;;;;;;5.70;2.05;;;;;;;2.91;100.00;98652.75;5052397;28;20173;-37
2023/01/17 09:42:28;;;;;;;9.50;1.63;;;;;;;2.82;100.00;98662.69;5052173;28;20025;-36
2023/01/17 09:44:54;;;;;;;8.27;1.92;;;;;;;2.85;100.00;98667.63;5051774;28;20037;-37
2023/01/17 09:47:41;;;;;;;8.57;2.10;;;;;;;2.92;100.00;98675.66;5051838;28;20391;-36
2023/01/17 09:50:24;;;;;;;13.13;2.40;;;;;;;3.01;100.00;98666.59;5052314;28;20033;-36
2023/01/17 09:52:59;;;;;;;5.72;1.98;;;;;;;3.10;100.00;98668.09;5052393;28;20434;-37
2023/01/17 09:55:24;;;;;;;8.15;2.30;;;;;;;3.26;100.00;98675.03;5051215;28;20492;-36
2023/01/17 09:58:01;;;;;;;10.38;1.85;;;;;;;3.27;100.00;98680.16;5051055;28;20053;-36
2023/01/17 10:00:29;;;;;;;15.15;2.30;;;;;;;3.25;100.00;98681.38;5052914;28;20041;-35
2023/01/17 10:03:21;;;;;;;9.77;2.33;;;;;;;3.24;100.00;98687.69;5051694;28;20029;-35
2023/01/17 10:05:49;;;;;;;6.07;2.08;;;;;;;3.29;100.00;98682.63;5051219;28;20082;-36
2023/01/17 10:08:18;;;;;;;8.98;1.70;;;;;;;3.47;100.00;98693.66;5052298;28;20028;-37
2023/01/17 10:11:08;;;;;;;6.20;1.90;;;;;;;3.74;100.00;98677.97;5050523;28;20061;-37
2023/01/17 10:14:12;;;;;;;11.80;3.55;;;;;;;4.03;100.00;98686.78;5051370;28;20499;-37
2023/01/17 10:17:35;;;;;;;12.85;2.15;;;;;;;4.10;100.00;98687.66;5047003;28;20051;-36
2023/01/17 10:20:24;;;;;;;5.30;2.35;;;;;;;4.11;100.00;98690.16;5013133;28;20521;-36
2023/01/17 10:23:20;;;;;;;8.50;3.17;;;;;;;4.04;100.00;98697.25;5029283;28;20075;-37
2023/01/17 10:25:47;;;;;;;7.25;3.30;;;;;;;3.92;100.00;98690.78;5049302;28;20048;-36
2023/01/17 10:28:16;;;;;;;16.20;3.50;;;;;;;3.88;100.00;98697.53;5051879;28;20036;-36
2023/01/17 10:31:07;;;;;;;16.75;2.95;;;;;;;3.84;100.00;98704.22;5051466;28;20071;-37
2023/01/17 10:33:43;;;;;;;12.38;2.70;;;;;;;3.87;100.00;98698.53;5051058;28;20079;-37
2023/01/17 10:36:42;;;;;;;6.00;2.00;;;;;;;3.90;100.00;98701.66;5032960;28;20098;-36
2023/01/17 10:39:15;;;;;;;5.75;2.47;;;;;;;3.93;100.00;98697.78;5042247;28;20037;-37
2023/01/17 10:41:42;;;;;;;7.40;2.55;;;;;;;3.96;100.00;98702.72;5050939;28;20025;-36
2023/01/17 10:44:21;;;;;;;10.73;2.35;;;;;;;4.02;100.00;98696.63;5050299;28;20480;-36
2023/01/17 10:47:12;;;;;;;11.85;2.53;;;;;;;4.31;100.00;98694.78;5051405;28;20502;-36
2023/01/17 10:49:41;;;;;;;5.40;1.65;;;;;;;4.84;100.00;98695.09;5050606;28;20041;-35
2023/01/17 10:52:12;;;;;;;4.95;1.73;;;;;;;5.33;100.00;98694.06;5051623;28;20115;-37
2023/01/17 10:55:02;;;;;;;7.50;1.98;;;;;;;6.08;100.00;98702.00;5050042;28;20536;-36
2023/01/17 10:57:38;;;;;;;3.20;1.35;;;;;;;6.79;98.48;98694.13;5051555;28;20029;-36
2023/01/17 11:00:22;;;;;;;4.13;1.35;;;;;;;6.95;89.67;98691.97;5049820;28;20018;-35
2023/01/17 11:02:49;;;;;;;5.03;1.13;;;;;;;7.23;86.61;98695.16;5049348;28;20291;-36
2023/01/17 11:05:24;;;;;;;5.30;2.05;;;;;;;7.22;82.78;98688.19;5049911;28;20400;-36
2023/01/17 11:08:16;;;;;;;4.28;1.30;;;;;;;7.16;78.77;98689.03;5051244;28;20492;-36
2023/01/17 11:10:43;;;;;;;10.10;1.77;;;;;;;7.29;77.74;98690.00;5049456;28;20110;-36
2023/01/17 11:13:31;;;;;;;5.23;1.23;;;;;;;7.50;78.71;98692.34;5050574;28;20029;-37
2023/01/17 11:16:01;;;;;;;;;;;;;;;7.67;75.94;98690.00;5050696;28;20734;-35
2023/01/17 11:18:29;;;;;;;3.85;1.50;;;;;;;7.56;71.88;98694.19;5050803;28;19920;-36
2023/01/17 11:21:10;;;;;;;9.25;1.50;;;;;;;7.70;72.59;98689.56;5045162;28;20040;-36
2023/01/17 11:23:37;;;;;;;4.05;1.35;;;;;;;7.65;69.28;98682.16;5039354;28;20040;-36
2023/01/17 11:26:06;;;;;;;3.10;1.10;;;;;;;7.79;67.76;98687.44;5050057;28;20354;-38
2023/01/17 11:28:33;;;;;;;4.85;1.38;;;;;;;7.82;65.14;98682.47;5046276;28;20044;-35
2023/01/17 11:31:07;;;;;;;5.03;1.38;;;;;;;7.98;68.98;98683.81;5039582;28;20111;-38
2023/01/17 11:33:44;;;;;;;3.92;1.15;;;;;;;8.33;68.89;98680.63;5050310;28;20029;-37
2023/01/17 11:36:19;;;;;;;2.42;1.00;;;;;;;8.87;63.11;98681.72;5035376;28;20050;-36
2023/01/17 11:38:57;;;;;;;9.27;1.65;;;;;;;8.50;66.68;98688.94;5042083;28;20040;-36
2023/01/17 11:41:24;;;;;;;6.68;1.65;;;;;;;8.79;66.04;98692.75;5029910;28;20044;-36
2023/01/17 11:43:52;;;;;;;7.57;1.02;;;;;;;8.89;65.76;98686.88;5030614;28;20409;-36
2023/01/17 11:46:19;;;;;;;7.43;1.23;;;;;;;9.18;61.51;98693.34;5030319;28;20041;-38
2023/01/17 11:48:55;;;;;;;6.13;1.73;;;;;;;9.24;61.15;98689.75;5039918;28;20079;-36
2023/01/17 11:51:32;;;;;;;6.70;1.35;;;;;;;9.74;62.39;98683.28;5044572;28;20523;-36
2023/01/17 11:54:12;;;;;;;1.55;1.08;;;;;;;9.53;59.34;98679.25;5059410;28;20037;-37
2023/01/17 11:56:39;;;;;;;4.30;1.00;;;;;;;9.59;60.22;98676.47;5041073;28;20036;-35
2023/01/17 11:59:16;;;;;;;3.97;0.82;;;;;;;9.50;58.19;98677.84;5043751;28;20300;-36
2023/01/17 12:01:54;;;;;;;5.78;0.93;;;;;;;9.16;59.00;98673.97;5046052;28;20051;-36
2023/01/17 12:04:43;;;;;;;7.95;1.50;;;;;;;9.51;59.87;98674.13;5047182;28;20033;-36
2023/01/17 12:07:30;;;;;;;4.82;1.42;;;;;;;9.85;55.95;98680.66;5046357;28;20040;-36
2023/01/17 12:10:01;;;;;;;4.53;1.35;;;;;;;9.57;57.43;98675.06;5048915;28;20037;-37
2023/01/17 12:15:54;;;;;;;13.38;1.65;;;;;;;8.64;60.35;98673.56;5048357;28;20040;-35
2023/01/17 12:18:25;;;;;;;6.90;1.30;;;;;;;8.61;61.20;98674.81;5048597;28;20811;-36
2023/01/17 12:21:25;;;;;;;8.13;1.85;;;;;;;8.72;62.81;98665.22;5048534;28;21430;-36
2023/01/17 12:24:14;;;;;;;6.50;2.13;;;;;;;8.68;63.02;98664.00;5045950;28;20033;-36
2023/01/17 12:26:42;;;;;;;6.55;2.03;;;;;;;8.56;60.93;98664.75;5061551;28;20442;-36
2023/01/17 12:29:26;;;;;;;5.50;2.35;;;;;;;8.05;63.52;98660.44;5029919;28;20393;-36
2023/01/17 12:32:13;;;;;;;19.65;2.58;;;;;;;7.59;65.21;98663.50;5041381;28;20108;-35
2023/01/17 12:34:43;;;;;;;5.85;1.48;;;;;;;7.30;65.19;98657.69;5044685;28;20131;-37
2023/01/17 12:37:19;;;;;;;10.80;2.25;;;;;;;7.28;64.18;98653.59;5043773;28;20107;-36
2023/01/17 12:39:52;;;;;;;3.85;1.58;;;;;;;7.10;65.44;98647.06;5045986;28;20067;-36
2023/01/17 12:42:22;;;;;;;6.03;1.05;;;;;;;6.96;66.43;98645.50;5046245;28;20049;-36
2023/01/17 12:44:51;;;;;;;13.20;2.40;;;;;;;6.78;68.00;98647.00;5044992;28;20053;-36
2023/01/17 12:47:19;;;;;;;2.05;1.10;;;;;;;6.78;67.25;98647.00;5048250;28;20059;-36
2023/01/17 12:49:55;;;;;;;8.35;2.03;;;;;;;6.86;68.11;98645.13;5048346;28;20039;-36
2023/01/17 12:52:24;;;;;;;3.47;1.30;;;;;;;6.88;67.08;98645.75;5051026;28;20028;-38
2023/01/17 12:54:53;;;;;;;3.45;1.55;;;;;;;6.67;68.66;98647.66;5047786;28;20033;-36
2023/01/17 12:57:25;;;;;;;7.05;1.50;;;;;;;6.50;70.06;98650.00;5044983;28;20036;-36
2023/01/17 13:00:00;;;;;;;9.10;1.80;;;;;;;6.45;69.98;98648.94;5060429;28;20538;-36
2023/01/17 13:02:47;;;;;;;5.03;1.52;;;;;;;6.38;70.43;98640.97;5045181;28;20111;-36
2023/01/17 13:05:15;;;;;;;5.43;1.43;;;;;;;6.38;69.53;98643.63;5042710;28;20075;-36
2023/01/17 13:07:46;;;;;;;13.30;1.80;;;;;;;6.32;71.39;98645.28;5045235;28;20029;-37
2023/01/17 13:10:30;;;;;;;5.22;1.40;;;;;;;6.18;69.92;98638.31;5039244;28;20109;-38